Time;durP1;ratioP1;P1;durP2;ratioP2;P2;SDS_P1;SDS_P2;PMS_P1;PMS_P2;Temp;Humidity;BMP_temperature;BMP_pressure;BME280_temperature;BME280_humidity;BME280_pressure;Samples;Min_cycle;Max_cycle;Signal;HPM_P1;HPM_P2
2022/10/31 00:01:45;;;;;;;4.73;1.90;;;13.40;99.90;;;;;;5051901;28;20205;-77
2022/10/31 00:04:12;;;;;;;2.73;1.77;;;13.40;99.90;;;;;;5051699;28;20201;-76
2022/10/31 00:06:40;;;;;;;4.77;2.03;;;13.30;99.90;;;;;;5068372;28;20710;-76
2022/10/31 00:09:07;;;;;;;3.53;1.60;;;13.30;99.90;;;;;;5071269;28;20293;-77
2022/10/31 00:11:34;;;;;;;4.13;1.67;;;13.30;99.90;;;;;;5056505;28;20220;-75
2022/10/31 00:14:02;;;;;;;4.20;2.30;;;13.20;99.90;;;;;;5051512;28;20210;-75
2022/10/31 00:16:29;;;;;;;4.37;2.10;;;13.20;99.90;;;;;;5064480;28;20212;-76
2022/10/31 00:18:57;;;;;;;4.40;1.97;;;13.20;99.90;;;;;;5062426;28;20698;-75
2022/10/31 00:21:25;;;;;;;4.77;2.53;;;13.10;99.90;;;;;;5050853;28;20480;-76
2022/10/31 00:23:53;;;;;;;4.13;2.30;;;13.10;99.90;;;;;;5051461;28;20193;-77
2022/10/31 00:26:20;;;;;;;5.20;2.27;;;13.10;99.90;;;;;;5051522;28;20321;-76
2022/10/31 00:28:47;;;;;;;2.77;1.97;;;13.00;99.90;;;;;;5054447;28;20297;-76
2022/10/31 00:31:14;;;;;;;4.93;2.10;;;13.00;99.90;;;;;;5055122;28;20896;-75
2022/10/31 00:33:42;;;;;;;4.77;2.43;;;12.90;99.90;;;;;;5055115;28;20563;-75
2022/10/31 00:36:13;;;;;;;4.97;2.50;;;12.90;99.90;;;;;;5054495;28;20612;-75
2022/10/31 00:38:40;;;;;;;2.17;1.93;;;12.90;99.90;;;;;;5054638;28;20505;-74
2022/10/31 00:41:08;;;;;;;3.10;2.40;;;12.80;99.90;;;;;;5055532;28;20208;-75
2022/10/31 00:43:35;;;;;;;3.97;2.13;;;12.80;99.90;;;;;;5054764;28;20206;-75
2022/10/31 00:46:02;;;;;;;3.93;2.30;;;12.80;99.90;;;;;;5054521;28;20238;-75
2022/10/31 00:48:29;;;;;;;3.63;2.27;;;12.70;99.90;;;;;;5070987;28;20208;-76
2022/10/31 00:50:57;;;;;;;3.47;2.50;;;12.70;99.90;;;;;;5063661;28;20202;-75
2022/10/31 00:53:23;;;;;;;3.30;2.33;;;12.70;99.90;;;;;;5054922;28;20304;-75
2022/10/31 00:55:50;;;;;;;2.50;1.90;;;12.70;99.90;;;;;;5057301;28;20205;-75
2022/10/31 00:58:19;;;;;;;4.10;2.37;;;12.60;99.90;;;;;;5074519;28;20296;-75
2022/10/31 01:00:47;;;;;;;3.13;2.10;;;12.60;99.90;;;;;;5070290;28;20195;-74
2022/10/31 01:03:14;;;;;;;3.63;2.50;;;12.60;99.90;;;;;;5054095;28;20202;-75
2022/10/31 01:05:41;;;;;;;6.10;2.47;;;12.60;99.90;;;;;;5054040;28;20241;-75
2022/10/31 01:08:08;;;;;;;2.40;2.10;;;12.60;99.90;;;;;;5055987;28;20202;-76
2022/10/31 01:10:34;;;;;;;7.33;3.23;;;12.60;99.90;;;;;;5054108;28;20590;-75
2022/10/31 01:13:01;;;;;;;3.00;2.30;;;12.50;99.90;;;;;;5054816;28;20222;-75
2022/10/31 01:15:29;;;;;;;4.53;2.30;;;12.50;99.90;;;;;;5054083;28;20602;-74
2022/10/31 01:17:56;;;;;;;5.20;2.83;;;12.50;99.90;;;;;;5054111;28;20288;-75
2022/10/31 01:20:23;;;;;;;3.03;2.60;;;12.50;99.90;;;;;;5054687;28;20540;-75
2022/10/31 01:22:50;;;;;;;4.60;3.00;;;12.50;99.90;;;;;;5054225;28;20197;-75
2022/10/31 01:25:17;;;;;;;2.93;2.20;;;12.50;99.90;;;;;;5054803;28;20197;-75
2022/10/31 01:27:44;;;;;;;5.00;2.20;;;12.40;99.90;;;;;;5054332;28;20236;-75
2022/10/31 01:30:12;;;;;;;2.73;2.40;;;12.40;99.90;;;;;;5057640;28;20204;-75
2022/10/31 01:32:40;;;;;;;3.50;2.03;;;12.30;99.90;;;;;;5073786;28;20204;-74
2022/10/31 01:35:07;;;;;;;2.83;2.53;;;12.30;99.90;;;;;;5058846;28;20205;-77
2022/10/31 01:37:34;;;;;;;5.23;2.83;;;12.30;99.90;;;;;;5054136;28;20356;-74
2022/10/31 01:40:01;;;;;;;3.63;2.77;;;12.30;99.90;;;;;;5052779;28;20598;-76
2022/10/31 01:42:27;;;;;;;3.77;2.70;;;12.40;99.90;;;;;;5053688;28;20204;-76
2022/10/31 01:44:58;;;;;;;4.77;3.00;;;12.30;99.90;;;;;;5061082;28;20206;-75
2022/10/31 01:47:37;;;;;;;3.77;2.80;;;12.30;99.90;;;;;;5073651;28;20225;-75
2022/10/31 01:50:13;;;;;;;3.33;3.03;;;12.30;99.90;;;;;;5073571;28;20192;-75
2022/10/31 01:52:43;;;;;;;3.43;3.10;;;12.30;99.90;;;;;;5059794;28;20291;-77
2022/10/31 01:55:13;;;;;;;3.97;2.70;;;12.30;99.90;;;;;;5053316;28;20389;-76
2022/10/31 01:57:44;;;;;;;3.30;2.90;;;12.20;99.90;;;;;;5054153;28;20190;-74
2022/10/31 02:00:12;;;;;;;5.70;3.30;;;12.20;99.90;;;;;;5053764;28;20208;-76
2022/10/31 02:02:39;;;;;;;5.63;3.33;;;12.20;99.90;;;;;;5054053;28;20206;-75
2022/10/31 02:05:10;;;;;;;4.80;3.27;;;12.20;99.90;;;;;;5053332;28;20232;-76
2022/10/31 02:07:43;;;;;;;4.00;3.37;;;12.10;99.90;;;;;;5054087;28;20229;-75
2022/10/31 02:10:10;;;;;;;3.67;3.37;;;12.10;99.90;;;;;;5052868;28;20199;-75
2022/10/31 02:12:37;;;;;;;5.83;3.87;;;12.10;99.90;;;;;;5053339;28;20201;-75
2022/10/31 02:15:05;;;;;;;5.30;3.83;;;12.00;99.90;;;;;;5052416;28;20216;-75
2022/10/31 02:17:34;;;;;;;4.70;4.23;;;12.00;99.90;;;;;;5053436;28;20202;-74
2022/10/31 02:20:10;;;;;;;4.67;4.20;;;12.00;99.90;;;;;;5053114;28;20198;-74
2022/10/31 02:22:47;;;;;;;6.67;4.93;;;12.00;99.90;;;;;;5053017;28;20196;-76
2022/10/31 02:25:36;;;;;;;5.00;4.50;;;11.90;99.90;;;;;;5053223;28;20194;-75
2022/10/31 02:28:24;;;;;;;4.67;4.27;;;11.90;99.90;;;;;;5052597;28;20224;-76
2022/10/31 02:31:15;;;;;;;6.27;5.17;;;11.90;99.90;;;;;;5049320;28;20206;-75
2022/10/31 02:33:48;;;;;;;4.23;3.90;;;11.90;99.90;;;;;;5053248;28;20216;-75
2022/10/31 02:36:22;;;;;;;4.93;4.43;;;11.90;99.90;;;;;;5052319;28;20210;-76
2022/10/31 02:38:57;;;;;;;7.43;5.10;;;11.80;99.90;;;;;;5053059;28;20487;-75
2022/10/31 02:41:35;;;;;;;5.13;4.70;;;11.80;99.90;;;;;;5052202;28;20193;-75
2022/10/31 02:44:09;;;;;;;7.50;5.00;;;11.70;99.90;;;;;;5052737;28;20498;-75
2022/10/31 02:46:43;;;;;;;5.23;4.73;;;11.70;99.90;;;;;;5052574;28;20553;-75
2022/10/31 02:49:12;;;;;;;5.10;4.60;;;11.70;99.90;;;;;;5052225;28;20281;-74
2022/10/31 02:51:40;;;;;;;5.80;4.70;;;11.60;99.90;;;;;;5052908;28;20214;-75
2022/10/31 02:54:18;;;;;;;5.50;4.67;;;11.60;99.90;;;;;;5052730;28;20218;-75
2022/10/31 02:56:46;;;;;;;4.67;3.90;;;11.60;99.90;;;;;;5051952;28;20198;-75
2022/10/31 02:59:13;;;;;;;6.43;4.30;;;11.50;99.90;;;;;;5052706;28;20231;-75
2022/10/31 03:01:59;;;;;;;4.90;4.20;;;11.50;99.90;;;;;;5052480;28;20591;-75
2022/10/31 03:04:41;;;;;;;5.70;4.83;;;11.50;99.90;;;;;;5052347;28;20193;-75
2022/10/31 03:07:15;;;;;;;8.53;4.40;;;11.50;99.90;;;;;;5052171;28;20304;-75
2022/10/31 03:09:51;;;;;;;5.23;4.60;;;11.50;99.90;;;;;;5052283;28;20194;-74
2022/10/31 03:12:27;;;;;;;5.20;4.70;;;11.50;99.90;;;;;;5052540;28;20194;-75
2022/10/31 03:15:01;;;;;;;6.40;5.80;;;11.50;99.90;;;;;;5052338;28;20209;-77
2022/10/31 03:17:37;;;;;;;6.50;5.90;;;11.50;99.90;;;;;;5051959;28;20483;-75
2022/10/31 03:20:10;;;;;;;8.77;6.63;;;11.50;99.90;;;;;;5052074;28;20198;-77
2022/10/31 03:22:41;;;;;;;7.30;6.00;;;11.50;99.90;;;;;;5052000;28;20698;-75
2022/10/31 03:25:09;;;;;;;6.07;5.10;;;11.50;99.90;;;;;;5051317;28;20510;-76
2022/10/31 03:27:40;;;;;;;6.93;4.90;;;11.50;99.90;;;;;;5034395;28;20214;-75
2022/10/31 03:30:08;;;;;;;7.00;5.13;;;11.40;99.90;;;;;;5052162;28;20190;-75
2022/10/31 03:32:42;;;;;;;6.33;5.07;;;11.40;99.90;;;;;;5051939;28;20202;-74
2022/10/31 03:35:11;;;;;;;5.00;4.50;;;11.40;99.90;;;;;;5051829;28;20194;-77
2022/10/31 03:37:40;;;;;;;5.60;5.10;;;11.30;99.90;;;;;;5051592;28;20194;-79
2022/10/31 03:40:09;;;;;;;6.10;5.00;;;11.30;99.90;;;;;;5051743;28;20206;-76
2022/10/31 03:42:41;;;;;;;5.40;4.80;;;11.20;99.90;;;;;;5051689;28;20194;-75
2022/10/31 03:45:12;;;;;;;5.77;5.17;;;11.20;99.90;;;;;;5051021;28;20198;-75
2022/10/31 03:47:42;;;;;;;4.37;3.97;;;11.20;99.90;;;;;;5052070;28;20214;-75
2022/10/31 03:50:11;;;;;;;5.90;4.60;;;11.10;99.90;;;;;;5052218;28;20531;-76
2022/10/31 03:52:46;;;;;;;5.10;4.57;;;11.10;99.90;;;;;;5051355;28;20582;-75
2022/10/31 03:55:18;;;;;;;5.37;4.50;;;11.10;99.90;;;;;;5051441;28;20653;-75
2022/10/31 03:57:53;;;;;;;5.40;4.90;;;11.00;99.90;;;;;;5051863;28;20194;-75
2022/10/31 04:00:20;;;;;;;6.20;5.23;;;11.00;99.90;;;;;;5051496;28;20190;-76
2022/10/31 04:02:54;;;;;;;6.03;4.97;;;11.00;99.90;;;;;;5053370;28;20193;-76
2022/10/31 04:05:22;;;;;;;5.17;4.67;;;11.10;99.90;;;;;;5075133;28;20237;-75
2022/10/31 04:07:54;;;;;;;4.87;4.40;;;11.00;99.90;;;;;;5066528;28;20227;-76
2022/10/31 04:10:25;;;;;;;4.83;4.33;;;11.00;99.90;;;;;;5075777;28;20635;-77
2022/10/31 04:12:58;;;;;;;5.60;4.83;;;11.00;99.90;;;;;;5064866;28;20251;-76
2022/10/31 04:15:26;;;;;;;6.47;5.50;;;10.90;99.90;;;;;;5055533;28;20275;-76
2022/10/31 04:17:59;;;;;;;5.60;4.67;;;10.90;99.90;;;;;;5055575;28;20465;-77
2022/10/31 04:20:32;;;;;;;7.03;4.77;;;10.80;99.90;;;;;;5054726;28;20510;-77
2022/10/31 04:22:59;;;;;;;5.87;5.27;;;10.80;99.90;;;;;;5055088;28;20197;-75
2022/10/31 04:25:26;;;;;;;5.73;4.80;;;10.80;99.90;;;;;;5055524;28;20273;-75
2022/10/31 04:27:53;;;;;;;9.73;5.30;;;10.80;99.90;;;;;;5054912;28;20316;-75
2022/10/31 04:30:19;;;;;;;4.87;4.37;;;10.80;99.90;;;;;;5055317;28;20289;-75
2022/10/31 04:32:46;;;;;;;4.83;4.40;;;10.70;99.90;;;;;;5055507;28;20198;-75
2022/10/31 04:35:15;;;;;;;5.90;5.30;;;10.70;99.90;;;;;;5054565;28;20205;-77
2022/10/31 04:37:42;;;;;;;5.43;4.83;;;10.70;99.90;;;;;;5055478;28;20255;-75
2022/10/31 04:40:10;;;;;;;6.27;5.00;;;10.60;99.90;;;;;;5055213;28;20210;-76
2022/10/31 04:42:37;;;;;;;5.77;4.60;;;10.60;99.90;;;;;;5054640;28;20190;-76
2022/10/31 04:45:05;;;;;;;5.10;4.57;;;10.60;99.90;;;;;;5054742;28;20198;-76
2022/10/31 04:47:32;;;;;;;6.03;5.17;;;10.60;99.90;;;;;;5054552;28;20229;-75
2022/10/31 04:49:59;;;;;;;7.07;6.27;;;10.60;99.90;;;;;;5055114;28;20194;-75
2022/10/31 04:52:27;;;;;;;7.40;6.70;;;10.60;99.90;;;;;;5055327;28;20206;-75
2022/10/31 04:54:54;;;;;;;7.20;6.50;;;10.60;99.90;;;;;;5054484;28;20230;-75
2022/10/31 04:57:21;;;;;;;8.33;7.20;;;10.70;99.90;;;;;;5054559;28;20216;-76
2022/10/31 04:59:47;;;;;;;9.23;8.23;;;10.70;99.90;;;;;;5054963;28;20208;-75
2022/10/31 05:02:14;;;;;;;9.63;8.07;;;10.80;99.90;;;;;;5054869;28;20204;-76
2022/10/31 05:04:41;;;;;;;11.27;9.30;;;10.80;99.90;;;;;;5054475;28;20328;-75
2022/10/31 05:07:08;;;;;;;11.10;9.70;;;10.80;99.90;;;;;;5054233;28;20262;-76
2022/10/31 05:09:36;;;;;;;10.47;9.47;;;10.90;99.90;;;;;;5054120;28;20198;-75
2022/10/31 05:12:03;;;;;;;9.67;8.70;;;10.90;99.90;;;;;;5054059;28;20216;-75
2022/10/31 05:14:30;;;;;;;11.00;9.57;;;10.90;99.90;;;;;;5054645;28;20294;-75
2022/10/31 05:16:57;;;;;;;12.23;10.50;;;10.90;99.90;;;;;;5055015;28;20201;-76
2022/10/31 05:19:24;;;;;;;11.37;10.17;;;11.00;99.90;;;;;;5054205;28;20216;-75
2022/10/31 05:21:51;;;;;;;10.90;9.43;;;10.90;99.90;;;;;;5054614;28;20209;-76
2022/10/31 05:24:17;;;;;;;9.77;8.77;;;10.90;99.90;;;;;;5064334;28;20211;-75
2022/10/31 05:26:46;;;;;;;9.30;8.40;;;10.90;99.90;;;;;;5073977;28;20202;-76
2022/10/31 05:29:12;;;;;;;12.43;9.50;;;10.90;99.90;;;;;;5059161;28;20202;-75
2022/10/31 05:31:39;;;;;;;11.10;8.87;;;10.90;99.90;;;;;;5054289;28;20209;-76
2022/10/31 05:34:06;;;;;;;8.67;7.83;;;10.90;99.90;;;;;;5053842;28;20400;-76
2022/10/31 05:36:33;;;;;;;8.20;7.20;;;10.90;99.90;;;;;;5054689;28;20622;-76
2022/10/31 05:39:00;;;;;;;8.87;8.07;;;10.80;99.90;;;;;;5053496;28;20201;-76
2022/10/31 05:41:27;;;;;;;9.73;8.17;;;10.80;99.90;;;;;;5053876;28;20209;-76
2022/10/31 05:43:55;;;;;;;9.23;7.57;;;10.80;99.90;;;;;;5053311;28;20279;-76
2022/10/31 05:46:22;;;;;;;9.47;8.30;;;10.80;99.90;;;;;;5053548;28;20241;-75
2022/10/31 05:48:48;;;;;;;11.10;9.77;;;10.80;99.90;;;;;;5053961;28;20226;-76
2022/10/31 05:51:15;;;;;;;10.70;9.23;;;10.80;99.90;;;;;;5053334;28;20202;-76
2022/10/31 05:53:42;;;;;;;9.73;8.67;;;10.70;99.90;;;;;;5053709;28;20301;-76
2022/10/31 05:56:09;;;;;;;11.87;10.67;;;10.70;99.90;;;;;;5054100;28;20213;-75
2022/10/31 05:58:36;;;;;;;14.00;10.27;;;10.80;99.90;;;;;;5053039;28;20788;-76
2022/10/31 06:01:05;;;;;;;12.47;11.17;;;10.70;99.90;;;;;;5053402;28;20210;-76
2022/10/31 06:03:32;;;;;;;11.07;9.63;;;10.70;99.90;;;;;;5054113;28;20632;-77
2022/10/31 06:05:59;;;;;;;12.73;10.33;;;10.70;99.90;;;;;;5053111;28;20257;-77
2022/10/31 06:08:25;;;;;;;11.70;10.50;;;10.60;99.90;;;;;;5053749;28;20226;-78
2022/10/31 06:10:53;;;;;;;11.67;9.87;;;10.60;99.90;;;;;;5054442;28;20204;-77
2022/10/31 06:13:20;;;;;;;10.10;9.10;;;10.50;99.90;;;;;;5053010;28;20264;-77
2022/10/31 06:15:47;;;;;;;10.70;9.60;;;10.40;99.90;;;;;;5053326;28;20586;-77
2022/10/31 06:18:15;;;;;;;13.37;10.87;;;10.40;99.90;;;;;;5053486;28;20206;-77
2022/10/31 06:20:44;;;;;;;13.27;11.97;;;10.40;99.90;;;;;;5053068;28;20209;-77
2022/10/31 06:23:11;;;;;;;17.10;13.93;;;10.40;99.90;;;;;;5052595;28;20552;-77
2022/10/31 06:25:37;;;;;;;15.40;13.77;;;10.40;99.90;;;;;;5052255;28;20205;-76
2022/10/31 06:28:05;;;;;;;15.73;13.83;;;10.40;99.90;;;;;;5052204;28;20221;-76
2022/10/31 06:30:31;;;;;;;19.73;16.53;;;10.40;99.90;;;;;;5057212;28;20204;-77
2022/10/31 06:33:04;;;;;;;21.70;16.40;;;10.50;99.90;;;;;;5072183;28;20228;-75
2022/10/31 06:35:32;;;;;;;20.83;18.13;;;10.50;99.90;;;;;;5053350;28;20570;-76
2022/10/31 06:37:59;;;;;;;21.73;18.87;;;10.50;99.90;;;;;;5052990;28;20288;-76
2022/10/31 06:40:26;;;;;;;21.50;17.70;;;10.50;99.90;;;;;;5052816;28;20194;-76
2022/10/31 06:43:00;;;;;;;20.27;16.70;;;10.50;99.90;;;;;;5052638;28;20733;-76
2022/10/31 06:45:28;;;;;;;19.97;17.27;;;10.50;99.90;;;;;;5052621;28;20500;-76
2022/10/31 06:47:56;;;;;;;19.80;16.80;;;10.50;99.90;;;;;;5052599;28;20249;-76
2022/10/31 06:50:23;;;;;;;24.60;18.83;;;10.60;99.90;;;;;;5052080;28;20202;-75
2022/10/31 06:52:55;;;;;;;20.50;17.07;;;10.60;99.90;;;;;;5051650;28;20201;-75
2022/10/31 06:55:24;;;;;;;22.77;19.73;;;10.60;99.90;;;;;;5051703;28;20204;-76
2022/10/31 06:57:51;;;;;;;24.07;19.80;;;10.60;99.90;;;;;;5052131;28;20255;-76
2022/10/31 07:00:18;;;;;;;28.40;20.27;;;10.70;99.90;;;;;;5052520;28;20190;-76
2022/10/31 07:02:53;;;;;;;26.17;20.43;;;10.70;99.90;;;;;;5052264;28;20205;-76
2022/10/31 07:05:20;;;;;;;27.27;20.90;;;10.70;99.90;;;;;;5052165;28;20332;-75
2022/10/31 07:07:46;;;;;;;26.70;21.40;;;10.80;99.90;;;;;;5060975;28;20225;-76
2022/10/31 07:10:15;;;;;;;25.17;20.40;;;10.80;99.90;;;;;;5063048;28;20214;-76
2022/10/31 07:12:42;;;;;;;24.60;19.33;;;10.80;99.90;;;;;;5052298;28;20200;-76
2022/10/31 07:15:09;;;;;;;28.37;22.77;;;10.80;99.90;;;;;;5086641;22;20241;-78
2022/10/31 07:17:36;;;;;;;23.97;20.80;;;10.80;99.90;;;;;;5071970;28;20593;-76
2022/10/31 07:20:03;;;;;;;22.57;19.37;;;10.90;99.90;;;;;;5072148;28;20205;-76
2022/10/31 07:22:34;;;;;;;29.13;22.33;;;10.90;99.90;;;;;;5071815;28;20411;-76
2022/10/31 07:25:01;;;;;;;30.77;23.00;;;10.90;99.90;;;;;;5072285;28;20205;-76
2022/10/31 07:27:29;;;;;;;28.07;22.30;;;11.00;99.90;;;;;;5071718;28;20197;-76
2022/10/31 07:29:56;;;;;;;31.80;23.33;;;11.00;99.90;;;;;;5071422;28;20205;-76
2022/10/31 07:32:23;;;;;;;28.27;22.60;;;11.10;99.90;;;;;;5072126;28;20212;-77
2022/10/31 07:34:49;;;;;;;29.87;24.37;;;11.10;99.90;;;;;;5089956;28;20287;-76
2022/10/31 07:37:16;;;;;;;33.23;24.13;;;11.10;99.90;;;;;;5090445;28;20192;-76
2022/10/31 07:39:43;;;;;;;26.93;22.43;;;11.20;99.90;;;;;;5092112;28;20203;-76
2022/10/31 07:42:10;;;;;;;36.37;25.80;;;11.20;99.90;;;;;;5087271;28;20246;-76
2022/10/31 07:44:38;;;;;;;32.20;24.93;;;11.30;99.90;;;;;;5091950;28;20196;-76
2022/10/31 07:47:05;;;;;;;33.03;25.73;;;11.30;99.90;;;;;;5089691;28;20204;-76
2022/10/31 07:49:32;;;;;;;38.17;27.47;;;11.40;99.90;;;;;;5089700;28;20295;-76
2022/10/31 07:51:59;;;;;;;36.93;26.93;;;11.40;99.90;;;;;;5082058;28;20235;-77
2022/10/31 07:54:26;;;;;;;36.57;27.33;;;11.50;99.90;;;;;;5084957;28;20231;-77
2022/10/31 07:56:52;;;;;;;32.93;26.53;;;11.60;99.90;;;;;;5084912;28;20212;-79
2022/10/31 07:59:19;;;;;;;32.70;26.13;;;11.60;99.90;;;;;;5090976;28;20192;-76
2022/10/31 08:01:48;;;;;;;35.73;28.00;;;11.70;99.90;;;;;;5091075;28;20197;-77
2022/10/31 08:04:15;;;;;;;35.23;27.57;;;11.80;99.90;;;;;;5082557;28;20231;-77
2022/10/31 08:06:42;;;;;;;35.40;28.47;;;11.80;99.90;;;;;;5085501;28;20543;-75
2022/10/31 08:09:09;;;;;;;32.60;26.17;;;11.80;99.90;;;;;;5086376;28;20201;-76
2022/10/31 08:11:35;;;;;;;33.83;27.83;;;11.80;99.90;;;;;;5071856;28;20937;-79
2022/10/31 08:14:02;;;;;;;32.60;26.60;;;11.90;99.90;;;;;;5070672;28;20244;-76
2022/10/31 08:16:29;;;;;;;34.97;27.60;;;12.00;99.90;;;;;;5071877;28;20272;-76
2022/10/31 08:18:57;;;;;;;35.03;28.03;;;12.00;99.90;;;;;;5090007;28;20209;-76
2022/10/31 08:21:24;;;;;;;29.70;25.23;;;12.00;99.90;;;;;;5099476;22;20200;-77
2022/10/31 08:23:51;;;;;;;32.63;27.73;;;12.10;99.90;;;;;;5090560;28;20228;-76
2022/10/31 08:26:18;;;;;;;39.10;30.17;;;12.20;99.90;;;;;;5091220;28;20557;-76
2022/10/31 08:28:46;;;;;;;37.70;29.10;;;12.20;99.90;;;;;;5081456;28;20227;-76
2022/10/31 08:31:13;;;;;;;36.77;29.70;;;12.30;99.90;;;;;;5071321;28;20201;-75
2022/10/31 08:33:39;;;;;;;41.03;29.17;;;12.30;99.90;;;;;;5072402;28;20198;-76
2022/10/31 08:36:08;;;;;;;37.20;29.73;;;12.30;99.90;;;;;;5079005;28;20197;-76
2022/10/31 08:38:35;;;;;;;32.07;27.13;;;12.40;99.90;;;;;;5091266;28;20208;-77
2022/10/31 08:41:02;;;;;;;38.37;29.13;;;12.40;99.90;;;;;;5090521;28;20546;-76
2022/10/31 08:43:28;;;;;;;37.67;28.50;;;12.50;99.90;;;;;;5086005;22;20237;-77
2022/10/31 08:45:55;;;;;;;40.20;30.47;;;12.50;99.90;;;;;;5059955;28;20495;-76
2022/10/31 08:48:22;;;;;;;36.83;29.63;;;12.60;99.90;;;;;;5051849;28;20252;-77
2022/10/31 08:50:49;;;;;;;41.07;30.60;;;12.60;99.90;;;;;;5063381;28;20537;-76
2022/10/31 08:53:19;;;;;;;38.77;29.77;;;12.60;99.90;;;;;;5073992;28;20225;-77
2022/10/31 08:55:47;;;;;;;43.57;30.93;;;12.70;99.90;;;;;;5068703;28;20210;-77
2022/10/31 08:58:16;;;;;;;40.50;27.57;;;12.80;99.90;;;;;;5054973;28;20201;-77
2022/10/31 09:00:44;;;;;;;46.63;30.33;;;12.80;99.90;;;;;;5055530;28;20209;-77
2022/10/31 09:03:13;;;;;;;38.27;28.77;;;12.90;99.90;;;;;;5054964;28;20594;-77
2022/10/31 09:05:40;;;;;;;43.13;31.10;;;12.90;99.90;;;;;;5054879;28;20683;-77
2022/10/31 09:08:08;;;;;;;39.67;30.07;;;13.00;99.90;;;;;;5054873;28;20264;-77
2022/10/31 09:10:37;;;;;;;37.40;28.20;;;13.00;99.90;;;;;;5054639;28;20198;-76
2022/10/31 09:13:06;;;;;;;38.97;29.23;;;13.10;99.90;;;;;;5066693;28;20223;-77
2022/10/31 09:15:34;;;;;;;38.90;28.33;;;13.20;99.90;;;;;;5074098;28;20601;-77
2022/10/31 09:18:01;;;;;;;42.80;28.57;;;13.20;99.90;;;;;;5064836;28;20205;-76
2022/10/31 09:20:28;;;;;;;35.67;28.30;;;13.30;99.90;;;;;;5074635;28;20247;-77
2022/10/31 09:23:01;;;;;;;37.13;27.50;;;13.30;99.90;;;;;;5062610;28;20205;-76
2022/10/31 09:25:28;;;;;;;36.43;25.27;;;13.40;99.90;;;;;;5072471;28;20197;-77
2022/10/31 09:27:58;;;;;;;35.37;25.20;;;13.40;99.90;;;;;;5054529;28;20198;-78
2022/10/31 09:30:25;;;;;;;33.90;23.30;;;13.50;99.90;;;;;;5072041;28;20205;-76
2022/10/31 09:32:56;;;;;;;35.23;22.83;;;13.50;99.90;;;;;;5074236;28;20205;-76
2022/10/31 09:35:23;;;;;;;27.67;22.57;;;13.50;99.90;;;;;;5059127;28;20202;-77
2022/10/31 09:37:55;;;;;;;27.10;21.90;;;13.50;99.90;;;;;;5053496;28;20486;-77
2022/10/31 09:40:23;;;;;;;31.33;21.63;;;13.60;99.90;;;;;;5055699;28;20613;-77
2022/10/31 09:43:02;;;;;;;28.47;19.63;;;13.60;99.90;;;;;;5054049;28;20762;-76
2022/10/31 09:45:36;;;;;;;31.27;19.80;;;13.60;99.90;;;;;;5054530;28;20251;-76
2022/10/31 09:48:15;;;;;;;26.17;19.73;;;13.60;99.90;;;;;;5053940;28;20200;-76
2022/10/31 09:50:47;;;;;;;24.87;18.90;;;13.60;99.90;;;;;;5073172;28;20207;-76
2022/10/31 09:53:23;;;;;;;29.67;19.93;;;13.60;99.90;;;;;;5073422;28;20229;-76
2022/10/31 09:55:51;;;;;;;27.70;19.80;;;13.60;99.90;;;;;;5071212;28;20219;-75
2022/10/31 09:58:24;;;;;;;26.23;17.93;;;13.60;99.90;;;;;;5061292;28;20292;-75
2022/10/31 10:00:51;;;;;;;24.13;18.30;;;13.60;99.90;;;;;;5072971;28;20201;-76
2022/10/31 10:03:28;;;;;;;26.07;17.97;;;13.60;99.90;;;;;;5073467;28;20208;-76
2022/10/31 10:06:02;;;;;;;29.93;19.83;;;13.70;99.90;;;;;;5060614;28;20204;-76
2022/10/31 10:08:32;;;;;;;27.77;19.10;;;13.70;99.90;;;;;;5053175;28;20228;-75
2022/10/31 10:11:09;;;;;;;31.30;19.37;;;13.80;99.90;;;;;;5052270;28;20177;-75
2022/10/31 10:13:58;;;;;;;27.80;20.47;;;13.90;99.90;;;;;;5069208;28;20300;-76
2022/10/31 10:16:41;;;;;;;26.53;18.63;;;14.10;99.90;;;;;;5072785;28;20196;-76
2022/10/31 10:19:32;;;;;;;24.90;18.40;;;14.20;99.90;;;;;;5065855;28;20204;-75
2022/10/31 10:22:10;;;;;;;26.87;18.43;;;14.30;99.90;;;;;;5053083;28;20254;-75
2022/10/31 10:24:54;;;;;;;23.60;18.17;;;14.30;99.90;;;;;;5073374;28;20203;-75
2022/10/31 10:27:26;;;;;;;22.57;18.27;;;14.40;99.90;;;;;;5072853;28;20185;-75
2022/10/31 10:29:59;;;;;;;21.67;17.70;;;14.40;99.90;;;;;;5053306;28;20206;-75
2022/10/31 10:32:30;;;;;;;24.80;16.40;;;14.50;99.90;;;;;;5052976;28;20190;-76
2022/10/31 10:35:02;;;;;;;21.53;16.13;;;14.50;99.90;;;;;;5067796;28;20201;-75
2022/10/31 10:37:33;;;;;;;21.83;17.00;;;14.60;99.90;;;;;;5072967;28;20273;-74
2022/10/31 10:40:07;;;;;;;21.07;14.80;;;14.70;99.90;;;;;;5070787;28;20205;-76
2022/10/31 10:48:12;;;;;;;15.40;11.53;;;14.90;99.90;;;;;;5072405;28;20192;-75
2022/10/31 10:50:45;;;;;;;20.60;11.80;;;15.00;99.90;;;;;;5063177;28;20229;-75
2022/10/31 10:53:32;;;;;;;18.33;11.10;;;15.00;99.90;;;;;;5052078;28;20223;-75
2022/10/31 10:56:05;;;;;;;14.77;11.98;;;15.10;99.90;;;;;;5052042;28;20290;-76
2022/10/31 10:58:32;;;;;;;15.53;11.60;;;15.10;99.90;;;;;;5053069;28;20194;-75
2022/10/31 11:01:01;;;;;;;14.43;11.07;;;15.20;99.90;;;;;;5052988;28;20208;-76
2022/10/31 11:03:28;;;;;;;16.93;11.83;;;15.20;99.90;;;;;;5069967;28;20598;-76
2022/10/31 11:05:58;;;;;;;18.13;11.80;;;15.30;99.90;;;;;;5071152;28;20255;-76
2022/10/31 11:08:25;;;;;;;14.93;11.65;;;15.40;99.90;;;;;;5071935;28;20244;-76
2022/10/31 11:11:01;;;;;;;13.90;11.43;;;15.50;99.90;;;;;;5062229;28;20206;-79
2022/10/31 11:13:29;;;;;;;19.58;12.98;;;15.50;99.90;;;;;;5052703;28;20749;-76
2022/10/31 11:16:00;;;;;;;18.70;13.27;;;15.60;99.90;;;;;;5051378;28;20197;-78
2022/10/31 11:18:30;;;;;;;20.25;13.90;;;15.70;99.90;;;;;;5054018;28;20236;-76
2022/10/31 11:20:59;;;;;;;20.30;13.38;;;15.80;99.90;;;;;;5052227;28;20275;-76
2022/10/31 11:23:28;;;;;;;22.83;14.70;;;16.00;99.90;;;;;;5061554;28;20284;-80
2022/10/31 11:25:57;;;;;;;16.13;12.00;;;16.20;99.90;;;;;;5071810;28;20228;-80
2022/10/31 11:28:24;;;;;;;14.37;10.60;;;16.40;99.90;;;;;;5069551;28;20550;-79
2022/10/31 11:30:54;;;;;;;13.40;10.07;;;16.50;99.90;;;;;;5072250;28;20233;-79
2022/10/31 11:33:27;;;;;;;15.77;9.48;;;16.70;99.90;;;;;;5069849;28;20581;-79
2022/10/31 11:35:55;;;;;;;12.50;8.50;;;16.90;99.90;;;;;;5080481;28;20185;-78
2022/10/31 11:38:25;;;;;;;11.82;7.82;;;17.00;99.90;;;;;;5073139;28;20205;-79
2022/10/31 11:40:58;;;;;;;8.57;6.65;;;17.00;99.90;;;;;;5053153;28;20190;-80
2022/10/31 11:43:26;;;;;;;9.60;5.80;;;17.10;99.90;;;;;;5065140;28;20232;-81
2022/10/31 11:45:53;;;;;;;8.23;5.20;;;17.10;99.90;;;;;;5069764;28;20212;-78
2022/10/31 11:48:24;;;;;;;7.78;4.45;;;17.10;99.90;;;;;;5071722;28;20220;-77
2022/10/31 11:50:53;;;;;;;6.88;4.85;;;17.10;99.90;;;;;;5068319;28;20224;-76
2022/10/31 11:53:26;;;;;;;8.93;5.75;;;17.00;99.90;;;;;;5071612;28;21020;-79
2022/10/31 11:56:05;;;;;;;7.28;5.88;;;17.00;99.90;;;;;;5069378;28;20201;-78
2022/10/31 11:58:32;;;;;;;10.32;6.60;;;16.90;99.90;;;;;;5065802;28;20259;-78
2022/10/31 12:00:59;;;;;;;10.73;7.10;;;16.90;99.90;;;;;;5070159;28;20201;-78
2022/10/31 12:03:49;;;;;;;8.18;6.63;;;17.00;99.90;;;;;;5071527;28;20205;-77
2022/10/31 12:06:21;;;;;;;12.15;7.68;;;17.10;99.90;;;;;;5062093;28;20221;-77
2022/10/31 12:08:47;;;;;;;11.63;8.55;;;17.20;99.90;;;;;;5068763;28;20197;-76
2022/10/31 12:11:34;;;;;;;12.35;8.40;;;17.10;99.90;;;;;;5070521;28;20186;-76
2022/10/31 12:14:12;;;;;;;14.20;8.25;;;17.20;99.90;;;;;;5065032;28;20193;-79
2022/10/31 12:16:47;;;;;;;9.98;7.90;;;17.20;99.90;;;;;;5079839;28;20199;-78
2022/10/31 12:19:25;;;;;;;11.65;7.55;;;17.20;99.90;;;;;;5076587;28;20197;-80
2022/10/31 12:22:09;;;;;;;11.75;7.78;;;17.20;99.90;;;;;;5076860;28;20193;-77
2022/10/31 12:24:52;;;;;;;12.65;9.00;;;17.30;99.90;;;;;;5073728;28;20251;-77
2022/10/31 12:27:33;;;;;;;12.30;8.80;;;17.30;99.90;;;;;;5077608;28;20202;-77
2022/10/31 12:30:19;;;;;;;13.52;9.40;;;17.40;99.90;;;;;;5074361;28;20311;-78
2022/10/31 12:33:15;;;;;;;18.00;10.07;;;17.40;99.90;;;;;;5075563;28;20236;-78
2022/10/31 12:35:48;;;;;;;13.80;10.38;;;17.40;99.90;;;;;;5074355;28;20223;-78
2022/10/31 12:38:38;;;;;;;12.90;10.68;;;17.40;99.90;;;;;;5066360;28;20202;-79
2022/10/31 12:41:24;;;;;;;17.58;11.27;;;17.40;99.90;;;;;;5066550;28;20279;-77
2022/10/31 12:43:58;;;;;;;13.07;10.77;;;17.50;99.90;;;;;;5076983;28;20536;-78
2022/10/31 12:46:39;;;;;;;14.93;11.65;;;17.50;99.90;;;;;;5076140;28;20200;-80
2022/10/31 12:49:39;;;;;;;17.48;12.48;;;17.50;99.90;;;;;;5094819;28;20196;-78
2022/10/31 12:52:19;;;;;;;16.67;11.90;;;17.50;99.90;;;;;;5062514;28;20200;-79
2022/10/31 12:54:59;;;;;;;19.05;13.30;;;17.50;99.90;;;;;;5074494;28;20228;-78
2022/10/31 12:57:32;;;;;;;15.35;12.20;;;17.50;99.90;;;;;;5069693;28;20213;-78